Kailua Kona, Hawaii
Current Conditions -  °F | °C
As of 4:53 AM on Thursday 23 Oct 2014 (Local Time) from PHKO Reporting Station
Broken Clouds Broken Clouds  
Wind Chill: 77°   Ceiling: 3700
Heat Index: 79°   Visibility: 10mi
Dew Point: 71°   Wind: 3mph
Humidity: 82%   Direction: 110°ESE
Pressure: 29.95"   Gusts: NA
Location:  19.73°N, 156.05°W
Report Text: PHKO 231453Z AUTO 11003KT 10SM FEW029 BKN037 BKN045 25/22 A2995 RMK AO2 SLP142 T02500217 55003 TSNO
Loading
Personal Weather Stations






























Interactive Weather Map
Tropical Storm Tracking
New forecast layout! Learn more

10-Day Weather Forecast

Advertisements
Track Severe Weather on mobile